Time;durP1;ratioP1;P1;durP2;ratioP2;P2;SDS_P1;SDS_P2;PMS_P1;PMS_P2;Temp;Humidity;BMP_temperature;BMP_pressure;BME280_temperature;BME280_humidity;BME280_pressure;Samples;Min_cycle;Max_cycle;Signal;HPM_P1;HPM_P2
2022/01/01 00:01:27;;;;;;;71.13;31.63;;;;;;;;;;5089236;27;20661;-85
2022/01/01 00:03:53;;;;;;;62.95;32.10;;;;;;;;;;5087968;27;20031;-84
2022/01/01 00:06:19;;;;;;;75.82;36.30;;;;;;;;;;5102602;27;20154;-87
2022/01/01 00:08:45;;;;;;;72.18;36.92;;;;;;;;;;5122935;27;20046;-86
2022/01/01 00:11:12;;;;;;;65.20;35.38;;;;;;;;;;5088635;27;20047;-84
2022/01/01 00:13:39;;;;;;;80.95;36.95;;;;;;;;;;5106900;27;20043;-85
2022/01/01 00:16:09;;;;;;;64.78;35.05;;;;;;;;;;5089916;27;20047;-84
2022/01/01 00:18:38;;;;;;;75.65;34.72;;;;;;;;;;5086823;27;20043;-84
2022/01/01 00:21:05;;;;;;;75.43;33.88;;;;;;;;;;5105072;27;20087;-84
2022/01/01 00:23:31;;;;;;;73.00;34.65;;;;;;;;;;5106095;27;20402;-88
2022/01/01 00:25:58;;;;;;;68.57;31.80;;;;;;;;;;5123792;27;20043;-88
2022/01/01 00:28:24;;;;;;;73.72;32.67;;;;;;;;;;5108813;27;20065;-84
2022/01/01 00:30:51;;;;;;;78.53;35.92;;;;;;;;;;5116471;27;20039;-87
2022/01/01 00:33:17;;;;;;;77.20;38.53;;;;;;;;;;5124580;27;20042;-85
2022/01/01 00:35:43;;;;;;;93.03;48.78;;;;;;;;;;5124306;27;20069;-86
2022/01/01 00:38:09;;;;;;;113.72;63.22;;;;;;;;;;5132831;27;20047;-88
2022/01/01 00:40:35;;;;;;;133.70;76.78;;;;;;;;;;5112356;27;20514;-86
2022/01/01 00:43:01;;;;;;;139.25;77.55;;;;;;;;;;5089947;28;20062;-86
2022/01/01 00:45:28;;;;;;;137.52;72.03;;;;;;;;;;5069562;28;20028;-83
2022/01/01 00:47:54;;;;;;;130.07;69.70;;;;;;;;;;5048929;28;20510;-85
2022/01/01 00:50:20;;;;;;;122.32;68.80;;;;;;;;;;5051124;28;20036;-86
2022/01/01 00:52:47;;;;;;;99.15;53.95;;;;;;;;;;5085583;28;20503;-86
2022/01/01 00:55:13;;;;;;;115.88;60.28;;;;;;;;;;5095945;28;20495;-84
2022/01/01 00:57:39;;;;;;;115.53;61.25;;;;;;;;;;5087323;28;20051;-84
2022/01/01 01:00:06;;;;;;;117.95;60.75;;;;;;;;;;5073174;28;20081;-85
2022/01/01 01:02:32;;;;;;;112.53;59.90;;;;;;;;;;5070643;28;20130;-86
2022/01/01 01:04:59;;;;;;;103.90;57.85;;;;;;;;;;5072064;28;20538;-87
2022/01/01 01:07:25;;;;;;;109.90;58.88;;;;;;;;;;5052431;28;20095;-84
2022/01/01 01:09:51;;;;;;;112.40;57.47;;;;;;;;;;5055954;28;20058;-84
2022/01/01 01:12:23;;;;;;;99.63;53.80;;;;;;;;;;5088071;28;20077;-84
2022/01/01 01:14:49;;;;;;;103.03;50.00;;;;;;;;;;5077572;28;20075;-84
2022/01/01 01:17:15;;;;;;;94.60;46.55;;;;;;;;;;5080564;28;20055;-84
2022/01/01 01:19:41;;;;;;;103.35;48.63;;;;;;;;;;5071151;28;20055;-84
2022/01/01 01:22:07;;;;;;;98.68;47.13;;;;;;;;;;5069684;28;20119;-85
2022/01/01 01:24:34;;;;;;;83.45;38.83;;;;;;;;;;5102108;28;20105;-84
2022/01/01 01:27:03;;;;;;;91.55;41.08;;;;;;;;;;5105326;28;20036;-85
2022/01/01 01:29:35;;;;;;;89.30;39.92;;;;;;;;;;5102437;28;20088;-84
2022/01/01 01:32:01;;;;;;;86.45;34.78;;;;;;;;;;5072650;28;20149;-87
2022/01/01 01:34:27;;;;;;;67.63;30.88;;;;;;;;;;5095818;28;20085;-85
2022/01/01 01:36:53;;;;;;;81.95;34.72;;;;;;;;;;5086733;28;20046;-85
2022/01/01 01:39:19;;;;;;;78.97;33.65;;;;;;;;;;5103683;28;20438;-84
2022/01/01 01:41:46;;;;;;;76.43;32.92;;;;;;;;;;5098867;28;20044;-87
2022/01/01 01:44:30;;;;;;;77.93;33.47;;;;;;;;;;5066932;28;20456;-85
2022/01/01 01:46:56;;;;;;;90.55;36.65;;;;;;;;;;5084825;28;20158;-87
2022/01/01 01:49:22;;;;;;;77.43;31.70;;;;;;;;;;5096883;28;20060;-84
2022/01/01 01:51:49;;;;;;;96.72;38.53;;;;;;;;;;5078748;28;20042;-85
2022/01/01 01:54:16;;;;;;;88.60;35.85;;;;;;;;;;5066535;28;20052;-83
2022/01/01 01:56:45;;;;;;;96.88;37.08;;;;;;;;;;5086603;28;20047;-88
2022/01/01 01:59:11;;;;;;;79.32;35.97;;;;;;;;;;5088434;28;20412;-84
2022/01/01 02:01:37;;;;;;;87.80;39.20;;;;;;;;;;5088515;28;20047;-85
2022/01/01 02:04:03;;;;;;;336.98;263.40;;;;;;;;;;5074618;28;20046;-84
2022/01/01 02:06:29;;;;;;;221.18;133.18;;;;;;;;;;5088637;28;20166;-84
2022/01/01 02:08:55;;;;;;;86.93;39.58;;;;;;;;;;5087994;28;20509;-83
2022/01/01 02:11:23;;;;;;;111.00;41.78;;;;;;;;;;5088019;28;20067;-84
2022/01/01 02:18:49;;;;;;;72.75;33.60;;;;;;;;;;5070067;28;20082;-88
2022/01/01 02:21:15;;;;;;;87.10;33.10;;;;;;;;;;5097272;28;20494;-86
2022/01/01 02:23:44;;;;;;;72.35;32.38;;;;;;;;;;5086349;28;20123;-85
2022/01/01 02:26:16;;;;;;;77.10;30.27;;;;;;;;;;5086985;28;20058;-86
2022/01/01 02:28:49;;;;;;;71.70;28.73;;;;;;;;;;5089160;28;20040;-84
2022/01/01 02:31:15;;;;;;;86.15;31.70;;;;;;;;;;5069468;28;20090;-84
2022/01/01 02:33:43;;;;;;;89.57;31.85;;;;;;;;;;5070242;28;20883;-87
2022/01/01 02:36:09;;;;;;;82.10;31.80;;;;;;;;;;5068137;28;20055;-85
2022/01/01 02:38:36;;;;;;;80.60;31.40;;;;;;;;;;5089334;28;20487;-87
2022/01/01 02:41:02;;;;;;;84.55;29.90;;;;;;;;;;5100088;28;20111;-85
2022/01/01 02:43:28;;;;;;;75.55;29.90;;;;;;;;;;5087841;28;20036;-84
2022/01/01 02:45:54;;;;;;;76.25;29.75;;;;;;;;;;5086862;28;20040;-86
2022/01/01 02:48:20;;;;;;;77.30;26.90;;;;;;;;;;5087943;28;20051;-87
2022/01/01 02:50:47;;;;;;;87.97;33.10;;;;;;;;;;5082748;28;20032;-85
2022/01/01 02:53:17;;;;;;;98.25;35.40;;;;;;;;;;5087226;28;20055;-85
2022/01/01 02:55:44;;;;;;;91.20;34.35;;;;;;;;;;5078666;28;20217;-86
2022/01/01 02:58:10;;;;;;;88.72;34.75;;;;;;;;;;5067194;28;20057;-85
2022/01/01 03:00:36;;;;;;;81.38;32.83;;;;;;;;;;5087118;28;20100;-88
2022/01/01 03:03:03;;;;;;;79.78;32.85;;;;;;;;;;5063270;28;20569;-88
2022/01/01 03:05:30;;;;;;;110.57;40.30;;;;;;;;;;5068671;28;20047;-84
2022/01/01 03:07:57;;;;;;;106.32;38.50;;;;;;;;;;5070067;28;20391;-87
2022/01/01 03:10:23;;;;;;;104.03;38.97;;;;;;;;;;5069521;28;20051;-86
2022/01/01 03:12:49;;;;;;;116.63;42.38;;;;;;;;;;5089849;28;20035;-90
2022/01/01 03:15:15;;;;;;;117.07;44.08;;;;;;;;;;5051666;28;20059;-87
2022/01/01 03:17:41;;;;;;;115.68;42.25;;;;;;;;;;5069359;28;20064;-86
2022/01/01 03:20:07;;;;;;;114.32;43.67;;;;;;;;;;5086336;28;20047;-83
2022/01/01 03:22:33;;;;;;;111.60;42.58;;;;;;;;;;5085625;28;20399;-86
2022/01/01 03:25:00;;;;;;;114.63;44.35;;;;;;;;;;5067102;28;20156;-84
2022/01/01 03:27:26;;;;;;;134.15;49.08;;;;;;;;;;5086662;28;20198;-84
2022/01/01 03:29:52;;;;;;;128.77;48.35;;;;;;;;;;5067761;28;20095;-85
2022/01/01 03:32:18;;;;;;;129.02;49.75;;;;;;;;;;5068179;28;20043;-84
2022/01/01 03:34:44;;;;;;;122.68;48.15;;;;;;;;;;5067142;28;20055;-86
2022/01/01 03:37:10;;;;;;;103.20;40.65;;;;;;;;;;5049160;28;20048;-83
2022/01/01 03:39:36;;;;;;;103.10;42.97;;;;;;;;;;5085895;28;20044;-82
2022/01/01 03:42:03;;;;;;;121.03;40.60;;;;;;;;;;5084900;28;20051;-84
2022/01/01 03:44:29;;;;;;;111.70;41.50;;;;;;;;;;5079085;28;20032;-84
2022/01/01 03:47:03;;;;;;;112.80;41.78;;;;;;;;;;5101564;28;20038;-89
2022/01/01 03:49:29;;;;;;;99.88;39.22;;;;;;;;;;5115881;27;20483;-86
2022/01/01 03:51:58;;;;;;;113.53;37.75;;;;;;;;;;5130125;27;20039;-85
2022/01/01 03:54:24;;;;;;;119.43;36.58;;;;;;;;;;5133168;27;20134;-85
2022/01/01 03:56:50;;;;;;;96.22;31.17;;;;;;;;;;5102747;27;20686;-84
2022/01/01 03:59:16;;;;;;;93.07;29.60;;;;;;;;;;5128145;27;20031;-83
2022/01/01 04:01:42;;;;;;;97.55;32.65;;;;;;;;;;5093170;27;20466;-83
2022/01/01 04:04:08;;;;;;;105.07;34.53;;;;;;;;;;5127181;27;20038;-86
2022/01/01 04:06:34;;;;;;;90.68;32.40;;;;;;;;;;5128218;27;20095;-88
2022/01/01 04:09:00;;;;;;;93.70;33.50;;;;;;;;;;5128357;27;20050;-83
2022/01/01 04:11:26;;;;;;;107.78;36.45;;;;;;;;;;5128604;27;20039;-83
2022/01/01 04:13:52;;;;;;;86.72;36.38;;;;;;;;;;5109388;27;20509;-84
2022/01/01 04:16:19;;;;;;;89.93;32.30;;;;;;;;;;5126699;27;20506;-84
2022/01/01 04:18:45;;;;;;;99.50;33.03;;;;;;;;;;5137718;27;20046;-85
2022/01/01 04:21:12;;;;;;;95.60;33.85;;;;;;;;;;5114330;27;20038;-83
2022/01/01 04:23:39;;;;;;;87.53;34.53;;;;;;;;;;5122976;27;20035;-82
2022/01/01 04:26:07;;;;;;;101.90;35.75;;;;;;;;;;5121287;27;20131;-86
2022/01/01 04:28:33;;;;;;;100.93;36.25;;;;;;;;;;5109131;27;20452;-85
2022/01/01 04:30:59;;;;;;;99.60;37.20;;;;;;;;;;5127335;27;20035;-84
2022/01/01 04:33:27;;;;;;;104.25;37.38;;;;;;;;;;5104862;27;20070;-83
2022/01/01 04:35:53;;;;;;;103.38;36.58;;;;;;;;;;5110044;27;20039;-87
2022/01/01 04:38:35;;;;;;;101.53;36.17;;;;;;;;;;5111870;27;20344;-82
2022/01/01 04:41:07;;;;;;;104.23;36.40;;;;;;;;;;5110456;27;20075;-82
2022/01/01 04:43:33;;;;;;;97.55;34.53;;;;;;;;;;5114867;27;21033;-83
2022/01/01 04:45:59;;;;;;;102.50;35.63;;;;;;;;;;5123276;27;20035;-83
2022/01/01 04:48:25;;;;;;;88.60;33.05;;;;;;;;;;5110461;27;20039;-86
2022/01/01 04:50:51;;;;;;;96.47;34.88;;;;;;;;;;5115465;27;20037;-83
2022/01/01 04:53:18;;;;;;;94.40;31.75;;;;;;;;;;5102570;27;20046;-88
2022/01/01 04:55:45;;;;;;;114.85;33.45;;;;;;;;;;5111703;27;20077;-85
2022/01/01 04:58:11;;;;;;;83.75;30.10;;;;;;;;;;5113699;27;20049;-83
2022/01/01 05:00:37;;;;;;;88.97;29.60;;;;;;;;;;5107969;27;20051;-84
2022/01/01 05:03:03;;;;;;;88.50;32.72;;;;;;;;;;5101899;27;20039;-85
2022/01/01 05:05:32;;;;;;;94.97;31.85;;;;;;;;;;5136704;27;20047;-84
2022/01/01 05:07:58;;;;;;;92.68;33.95;;;;;;;;;;5101494;27;20150;-84
2022/01/01 05:10:24;;;;;;;89.45;32.45;;;;;;;;;;5105170;27;20092;-87
2022/01/01 05:12:53;;;;;;;88.78;30.17;;;;;;;;;;5116302;27;20117;-88
2022/01/01 05:15:20;;;;;;;103.10;34.30;;;;;;;;;;5136685;27;20034;-85
2022/01/01 05:17:46;;;;;;;105.22;35.72;;;;;;;;;;5116507;27;20043;-88
2022/01/01 05:20:12;;;;;;;99.53;34.83;;;;;;;;;;5107770;28;20054;-84
2022/01/01 05:22:38;;;;;;;88.35;35.03;;;;;;;;;;5131926;27;20051;-87
2022/01/01 05:25:05;;;;;;;86.35;32.65;;;;;;;;;;5110975;27;20070;-87
2022/01/01 05:27:34;;;;;;;92.15;34.95;;;;;;;;;;5118284;27;20047;-90
2022/01/01 05:30:01;;;;;;;102.43;36.72;;;;;;;;;;5113676;27;20465;-90
2022/01/01 05:32:27;;;;;;;106.35;36.58;;;;;;;;;;5098151;27;20118;-89
2022/01/01 05:34:53;;;;;;;102.32;36.90;;;;;;;;;;5119604;27;20482;-84
2022/01/01 05:37:19;;;;;;;109.57;37.50;;;;;;;;;;5123311;27;20502;-84
2022/01/01 05:39:45;;;;;;;93.18;34.45;;;;;;;;;;5122321;27;20747;-83
2022/01/01 05:42:11;;;;;;;101.82;39.80;;;;;;;;;;5144416;27;20176;-87
2022/01/01 05:44:37;;;;;;;98.20;38.85;;;;;;;;;;5114498;27;21981;-86
2022/01/01 05:47:03;;;;;;;86.93;33.65;;;;;;;;;;5095072;27;20035;-87
2022/01/01 05:49:29;;;;;;;99.32;37.95;;;;;;;;;;5136569;27;20043;-84
2022/01/01 05:51:55;;;;;;;102.28;40.33;;;;;;;;;;5120045;27;20043;-85
2022/01/01 05:54:22;;;;;;;106.55;40.10;;;;;;;;;;5114211;27;20046;-85
2022/01/01 05:56:48;;;;;;;100.90;41.65;;;;;;;;;;5115630;27;20043;-87
2022/01/01 05:59:14;;;;;;;116.28;41.55;;;;;;;;;;5099845;27;20043;-85
2022/01/01 06:01:40;;;;;;;103.57;41.35;;;;;;;;;;5116387;27;20131;-88
2022/01/01 06:04:06;;;;;;;108.03;42.42;;;;;;;;;;5118533;27;20035;-84
2022/01/01 06:06:32;;;;;;;106.07;47.22;;;;;;;;;;5118430;27;20071;-84
2022/01/01 06:08:58;;;;;;;119.22;50.28;;;;;;;;;;5120197;27;20043;-89
2022/01/01 06:11:24;;;;;;;119.57;51.67;;;;;;;;;;5113617;27;20498;-88
2022/01/01 06:13:50;;;;;;;110.63;48.13;;;;;;;;;;5118558;27;20125;-84
2022/01/01 06:16:16;;;;;;;124.07;52.13;;;;;;;;;;5093119;27;20059;-83
2022/01/01 06:18:42;;;;;;;123.43;55.67;;;;;;;;;;5110288;27;20076;-82
2022/01/01 06:21:08;;;;;;;112.25;50.90;;;;;;;;;;5099107;27;20390;-84
2022/01/01 06:23:37;;;;;;;119.85;54.83;;;;;;;;;;5130494;27;20039;-84
2022/01/01 06:26:04;;;;;;;109.25;49.60;;;;;;;;;;5092272;27;20027;-86
2022/01/01 06:28:30;;;;;;;135.48;56.53;;;;;;;;;;5108841;27;20047;-83
2022/01/01 06:30:56;;;;;;;122.00;54.80;;;;;;;;;;5109046;27;20130;-84
2022/01/01 06:33:22;;;;;;;121.18;56.22;;;;;;;;;;5090541;27;20088;-86
2022/01/01 06:35:48;;;;;;;102.70;43.95;;;;;;;;;;5108367;27;20475;-84
2022/01/01 06:38:15;;;;;;;79.10;34.25;;;;;;;;;;5090903;27;20130;-84
2022/01/01 06:40:41;;;;;;;106.68;42.22;;;;;;;;;;5101452;28;20431;-86
2022/01/01 06:43:08;;;;;;;92.88;42.60;;;;;;;;;;5090767;28;20062;-83
2022/01/01 06:45:34;;;;;;;93.63;35.63;;;;;;;;;;5066315;28;20131;-84
2022/01/01 06:48:01;;;;;;;102.60;42.22;;;;;;;;;;5081172;28;20028;-89
2022/01/01 06:50:27;;;;;;;94.43;38.25;;;;;;;;;;5082908;28;20396;-87
2022/01/01 06:52:54;;;;;;;101.93;40.45;;;;;;;;;;5075581;28;20455;-84
2022/01/01 06:55:20;;;;;;;100.78;42.10;;;;;;;;;;5080184;28;20078;-84
2022/01/01 06:57:46;;;;;;;94.00;35.05;;;;;;;;;;5080100;28;20044;-84
2022/01/01 07:00:13;;;;;;;109.93;43.13;;;;;;;;;;5067706;28;20126;-84
2022/01/01 07:02:40;;;;;;;95.97;38.42;;;;;;;;;;5099720;28;20049;-85
2022/01/01 07:05:07;;;;;;;107.00;38.75;;;;;;;;;;5067654;28;20048;-84
2022/01/01 07:07:33;;;;;;;104.13;35.97;;;;;;;;;;5081635;28;20044;-84
2022/01/01 07:09:59;;;;;;;88.88;32.63;;;;;;;;;;5096265;28;20127;-84
2022/01/01 07:12:25;;;;;;;121.13;41.55;;;;;;;;;;5086872;28;20039;-83
2022/01/01 07:14:51;;;;;;;118.18;36.35;;;;;;;;;;5070357;28;20117;-84
2022/01/01 07:17:17;;;;;;;119.15;40.78;;;;;;;;;;5102737;28;20040;-85
2022/01/01 07:19:43;;;;;;;101.43;35.50;;;;;;;;;;5104462;28;20047;-86
2022/01/01 07:22:09;;;;;;;112.55;34.88;;;;;;;;;;5093200;28;20048;-83
2022/01/01 07:24:35;;;;;;;122.75;38.38;;;;;;;;;;5079915;28;20032;-84
2022/01/01 07:27:02;;;;;;;113.80;38.00;;;;;;;;;;5060211;28;20047;-87
2022/01/01 07:29:28;;;;;;;119.15;37.10;;;;;;;;;;5072142;28;20128;-83
2022/01/01 07:31:54;;;;;;;121.97;36.92;;;;;;;;;;5072853;28;20445;-84
2022/01/01 07:34:20;;;;;;;125.03;36.78;;;;;;;;;;5078907;28;20119;-85
2022/01/01 07:36:47;;;;;;;109.22;37.03;;;;;;;;;;5059619;28;20075;-84
2022/01/01 07:39:13;;;;;;;119.45;39.28;;;;;;;;;;5075669;28;20059;-84
2022/01/01 07:41:39;;;;;;;105.25;33.17;;;;;;;;;;5073780;28;20039;-84
2022/01/01 07:44:05;;;;;;;81.63;28.35;;;;;;;;;;5103953;28;20043;-85
2022/01/01 07:46:31;;;;;;;120.25;36.22;;;;;;;;;;5085275;28;20054;-84
2022/01/01 07:48:58;;;;;;;106.88;32.92;;;;;;;;;;5068412;28;20884;-85
2022/01/01 07:51:24;;;;;;;110.75;34.90;;;;;;;;;;5087042;28;20429;-87
2022/01/01 07:53:50;;;;;;;116.20;34.72;;;;;;;;;;5089655;28;20073;-84
2022/01/01 07:56:16;;;;;;;108.05;35.42;;;;;;;;;;5105630;28;20057;-85
2022/01/01 07:58:42;;;;;;;82.25;27.17;;;;;;;;;;5043782;28;20134;-84
2022/01/01 08:01:08;;;;;;;94.15;30.17;;;;;;;;;;5082835;28;20079;-85
2022/01/01 08:03:35;;;;;;;103.32;31.98;;;;;;;;;;5082436;28;20100;-85
2022/01/01 08:06:01;;;;;;;115.70;34.10;;;;;;;;;;5068200;28;20047;-85
2022/01/01 08:08:27;;;;;;;83.57;28.63;;;;;;;;;;5103607;28;20453;-83
2022/01/01 08:10:53;;;;;;;89.07;29.23;;;;;;;;;;5072473;28;20088;-84
2022/01/01 08:13:24;;;;;;;78.68;28.90;;;;;;;;;;5103124;28;20112;-86
2022/01/01 08:15:51;;;;;;;78.32;27.83;;;;;;;;;;5103376;28;20052;-85
2022/01/01 08:18:18;;;;;;;92.85;28.15;;;;;;;;;;5107704;27;20040;-85
2022/01/01 08:20:44;;;;;;;95.60;29.00;;;;;;;;;;5128969;28;20027;-85
2022/01/01 08:23:10;;;;;;;97.28;33.35;;;;;;;;;;5094414;28;20072;-84
2022/01/01 08:25:36;;;;;;;92.05;31.17;;;;;;;;;;5129954;28;20051;-87
2022/01/01 08:28:03;;;;;;;96.93;32.60;;;;;;;;;;5130015;28;20027;-85
2022/01/01 08:30:29;;;;;;;100.43;33.58;;;;;;;;;;5115785;28;20054;-87
2022/01/01 08:33:01;;;;;;;121.43;35.80;;;;;;;;;;5072573;28;20063;-87
2022/01/01 08:35:28;;;;;;;113.75;36.60;;;;;;;;;;5106679;28;20047;-86
2022/01/01 08:37:56;;;;;;;112.13;35.55;;;;;;;;;;5107998;28;20039;-86
2022/01/01 08:40:23;;;;;;;124.80;42.25;;;;;;;;;;5109036;28;20566;-85
2022/01/01 08:42:49;;;;;;;108.20;37.42;;;;;;;;;;5104137;28;20499;-85
2022/01/01 08:45:15;;;;;;;121.25;39.75;;;;;;;;;;5105472;28;20048;-85
2022/01/01 08:47:42;;;;;;;123.18;39.88;;;;;;;;;;5087441;28;20796;-85
2022/01/01 08:50:08;;;;;;;119.18;41.03;;;;;;;;;;5105427;28;20049;-88
2022/01/01 08:52:34;;;;;;;138.98;43.25;;;;;;;;;;5104897;28;20039;-86
2022/01/01 08:55:01;;;;;;;133.98;43.35;;;;;;;;;;5105620;28;20107;-85
2022/01/01 08:57:27;;;;;;;117.78;40.90;;;;;;;;;;5104664;28;20047;-85
2022/01/01 08:59:53;;;;;;;123.03;41.72;;;;;;;;;;5105060;28;20032;-87
2022/01/01 09:02:20;;;;;;;125.43;41.17;;;;;;;;;;5104570;28;20101;-85
2022/01/01 09:04:46;;;;;;;126.65;40.83;;;;;;;;;;5105125;28;20032;-84
2022/01/01 09:07:13;;;;;;;119.70;40.90;;;;;;;;;;5107950;28;20035;-86
2022/01/01 09:09:39;;;;;;;127.35;42.30;;;;;;;;;;5091747;28;20032;-86
2022/01/01 09:12:06;;;;;;;131.90;39.90;;;;;;;;;;5109097;28;20047;-85
2022/01/01 09:14:33;;;;;;;135.25;41.55;;;;;;;;;;5091319;28;20475;-84
2022/01/01 09:16:59;;;;;;;114.45;40.65;;;;;;;;;;5108666;28;20031;-84
2022/01/01 09:19:25;;;;;;;104.60;38.55;;;;;;;;;;5089800;28;20406;-85
2022/01/01 09:21:51;;;;;;;127.88;42.63;;;;;;;;;;5052624;28;20028;-85
2022/01/01 09:24:17;;;;;;;118.20;44.45;;;;;;;;;;5107581;28;20122;-84
2022/01/01 09:26:43;;;;;;;116.35;42.67;;;;;;;;;;5088536;28;20035;-85
2022/01/01 09:29:10;;;;;;;123.90;42.10;;;;;;;;;;5114085;28;20124;-84
2022/01/01 09:31:41;;;;;;;114.82;42.42;;;;;;;;;;5114146;28;20226;-84
2022/01/01 09:34:08;;;;;;;108.45;38.83;;;;;;;;;;5121868;28;20039;-84
2022/01/01 09:36:36;;;;;;;110.63;40.85;;;;;;;;;;5108749;28;20502;-84
2022/01/01 09:39:03;;;;;;;108.05;43.03;;;;;;;;;;5107861;28;20077;-86
2022/01/01 09:41:30;;;;;;;104.10;38.40;;;;;;;;;;5086392;28;20051;-85
2022/01/01 09:43:57;;;;;;;99.88;40.88;;;;;;;;;;5108003;28;20042;-83
2022/01/01 09:46:24;;;;;;;97.63;39.60;;;;;;;;;;5109515;28;20035;-84
2022/01/01 09:48:51;;;;;;;106.40;41.72;;;;;;;;;;5107085;27;20038;-83
2022/01/01 09:51:17;;;;;;;110.97;42.55;;;;;;;;;;5108965;28;20044;-88
2022/01/01 09:53:43;;;;;;;97.53;41.40;;;;;;;;;;5106083;28;20053;-89
2022/01/01 09:56:09;;;;;;;90.53;38.28;;;;;;;;;;5110646;28;20567;-84
2022/01/01 09:58:37;;;;;;;101.03;40.65;;;;;;;;;;5110128;28;20048;-88
2022/01/01 10:01:06;;;;;;;87.03;40.08;;;;;;;;;;5110088;28;20051;-86
2022/01/01 10:03:42;;;;;;;84.90;39.22;;;;;;;;;;5091487;28;20043;-86
2022/01/01 10:06:13;;;;;;;85.88;38.50;;;;;;;;;;5109553;28;20048;-87
2022/01/01 10:08:40;;;;;;;86.80;37.97;;;;;;;;;;5109609;28;20046;-86
2022/01/01 10:11:07;;;;;;;81.85;39.33;;;;;;;;;;5109389;28;20499;-86
2022/01/01 10:13:36;;;;;;;100.50;37.88;;;;;;;;;;5108700;28;20090;-88
2022/01/01 10:16:03;;;;;;;77.75;37.20;;;;;;;;;;5091299;28;20061;-85
2022/01/01 10:18:32;;;;;;;78.32;38.58;;;;;;;;;;5107935;28;20105;-85
2022/01/01 10:20:59;;;;;;;74.97;38.47;;;;;;;;;;5109517;28;20429;-85
2022/01/01 10:23:29;;;;;;;81.47;40.65;;;;;;;;;;5108946;28;20038;-87
2022/01/01 10:29:09;;;;;;;82.45;36.70;;;;;;;;;;5107943;28;20044;-85
2022/01/01 10:31:36;;;;;;;85.35;36.67;;;;;;;;;;5108712;28;20043;-86
2022/01/01 10:34:09;;;;;;;74.18;37.13;;;;;;;;;;5107657;28;21194;-85
2022/01/01 10:36:35;;;;;;;76.30;35.23;;;;;;;;;;5108665;28;20055;-87
2022/01/01 10:39:08;;;;;;;66.68;33.72;;;;;;;;;;5073491;28;20043;-87
2022/01/01 10:41:43;;;;;;;70.20;32.67;;;;;;;;;;5107717;28;20136;-87
2022/01/01 10:44:09;;;;;;;60.95;32.50;;;;;;;;;;5111202;28;20124;-87
2022/01/01 10:46:37;;;;;;;61.78;30.60;;;;;;;;;;5075552;28;20047;-85
2022/01/01 10:49:30;;;;;;;58.60;30.02;;;;;;;;;;5092817;28;20059;-87
2022/01/01 10:52:13;;;;;;;58.78;29.10;;;;;;;;;;5112868;28;20112;-85
2022/01/01 10:54:53;;;;;;;57.10;32.05;;;;;;;;;;5110592;28;20059;-89
2022/01/01 10:57:42;;;;;;;58.13;30.38;;;;;;;;;;5097421;28;20569;-86
2022/01/01 11:00:20;;;;;;;66.25;29.35;;;;;;;;;;5000049;28;20056;-85
2022/01/01 11:02:52;;;;;;;54.75;26.98;;;;;;;;;;5101454;28;20074;-86
2022/01/01 11:05:38;;;;;;;56.03;29.42;;;;;;;;;;5108191;28;20039;-86
2022/01/01 11:08:10;;;;;;;50.33;28.45;;;;;;;;;;5062784;28;20064;-86
2022/01/01 11:10:37;;;;;;;48.20;26.02;;;;;;;;;;5091731;27;20395;-86
2022/01/01 11:13:13;;;;;;;50.28;24.55;;;;;;;;;;5109600;28;20043;-87
2022/01/01 11:15:39;;;;;;;55.47;25.90;;;;;;;;;;5072726;28;20572;-85
2022/01/01 11:18:06;;;;;;;50.60;25.20;;;;;;;;;;5086034;28;20043;-85
2022/01/01 11:20:33;;;;;;;51.22;25.88;;;;;;;;;;5109456;28;20566;-88
2022/01/01 11:23:07;;;;;;;53.83;24.50;;;;;;;;;;5092785;27;20351;-85
2022/01/01 11:25:34;;;;;;;;;;;;;;;;;;5125131;27;20054;-85
2022/01/01 11:28:00;;;;;;;52.38;26.10;;;;;;;;;;5067854;28;19924;-92
2022/01/01 11:30:28;;;;;;;46.45;25.15;;;;;;;;;;5099105;27;20054;-83
2022/01/01 11:32:55;;;;;;;51.60;24.70;;;;;;;;;;5097134;27;20047;-87
2022/01/01 11:35:23;;;;;;;49.97;25.85;;;;;;;;;;5093234;28;20043;-84
2022/01/01 11:37:58;;;;;;;49.15;24.63;;;;;;;;;;5079903;28;20042;-88
2022/01/01 11:40:24;;;;;;;41.55;24.70;;;;;;;;;;5094426;28;20032;-90
2022/01/01 11:42:50;;;;;;;46.15;24.85;;;;;;;;;;5095681;28;20376;-85
2022/01/01 11:45:35;;;;;;;43.60;20.98;;;;;;;;;;5115549;28;20101;-85
2022/01/01 11:48:20;;;;;;;43.58;19.95;;;;;;;;;;5122239;28;20095;-84
2022/01/01 11:50:46;;;;;;;42.95;21.08;;;;;;;;;;5087625;28;20051;-82
2022/01/01 11:53:31;;;;;;;45.88;22.05;;;;;;;;;;5102747;28;20428;-84
2022/01/01 11:56:05;;;;;;;39.35;20.45;;;;;;;;;;5097306;28;20035;-89
2022/01/01 11:58:50;;;;;;;41.72;20.15;;;;;;;;;;5077216;28;20042;-85
2022/01/01 12:01:17;;;;;;;38.17;18.95;;;;;;;;;;5096865;28;20116;-84
2022/01/01 12:03:50;;;;;;;34.00;17.08;;;;;;;;;;5110398;28;20050;-87
2022/01/01 12:06:16;;;;;;;37.25;17.25;;;;;;;;;;5113048;28;20046;-85
2022/01/01 12:08:44;;;;;;;34.47;17.67;;;;;;;;;;5109329;28;20078;-90
2022/01/01 12:11:10;;;;;;;28.92;13.85;;;;;;;;;;5107049;28;20062;-89
2022/01/01 12:13:38;;;;;;;28.33;14.40;;;;;;;;;;5091262;28;20117;-87
2022/01/01 12:16:21;;;;;;;31.70;15.15;;;;;;;;;;5069907;28;20127;-85
2022/01/01 12:18:47;;;;;;;30.63;15.00;;;;;;;;;;5069438;28;20039;-84
2022/01/01 12:21:21;;;;;;;29.42;13.57;;;;;;;;;;5070720;28;20452;-84
2022/01/01 12:23:54;;;;;;;33.42;14.02;;;;;;;;;;5086093;28;20117;-85
2022/01/01 12:26:30;;;;;;;27.90;13.43;;;;;;;;;;5104718;28;20048;-87
2022/01/01 12:29:00;;;;;;;29.08;13.27;;;;;;;;;;5088362;27;20096;-84
2022/01/01 12:31:28;;;;;;;35.95;14.20;;;;;;;;;;5107318;28;20032;-88
2022/01/01 12:33:59;;;;;;;29.08;13.02;;;;;;;;;;5106141;28;20059;-87
2022/01/01 12:36:31;;;;;;;26.02;11.82;;;;;;;;;;5101123;28;20055;-90
2022/01/01 12:38:59;;;;;;;21.40;11.65;;;;;;;;;;5093484;28;20089;-87
2022/01/01 12:41:33;;;;;;;23.35;10.77;;;;;;;;;;5106119;28;20434;-85
2022/01/01 12:44:01;;;;;;;26.38;9.85;;;;;;;;;;5085100;28;20047;-87
2022/01/01 12:46:28;;;;;;;22.85;10.80;;;;;;;;;;5094369;28;20046;-86
2022/01/01 12:48:57;;;;;;;21.90;9.00;;;;;;;;;;5107573;28;20128;-86
2022/01/01 12:51:24;;;;;;;15.50;8.82;;;;;;;;;;5089961;28;20036;-87
2022/01/01 12:53:59;;;;;;;19.05;8.52;;;;;;;;;;5081658;28;20062;-89
2022/01/01 12:56:26;;;;;;;21.00;8.18;;;;;;;;;;5105609;28;20027;-85
2022/01/01 12:58:54;;;;;;;23.10;9.02;;;;;;;;;;5105558;28;20044;-84
2022/01/01 13:01:22;;;;;;;22.60;8.35;;;;;;;;;;5106132;28;20051;-86
2022/01/01 13:03:59;;;;;;;21.58;8.00;;;;;;;;;;5107588;28;20074;-85
2022/01/01 13:06:27;;;;;;;15.63;7.93;;;;;;;;;;5091293;28;20614;-85
2022/01/01 13:08:56;;;;;;;16.80;7.78;;;;;;;;;;5111184;28;20048;-85
2022/01/01 13:11:22;;;;;;;20.27;7.38;;;;;;;;;;5101241;28;20048;-85
2022/01/01 13:13:49;;;;;;;15.35;6.80;;;;;;;;;;5107806;28;20128;-85
2022/01/01 13:16:15;;;;;;;21.52;7.65;;;;;;;;;;5108675;28;20502;-85
2022/01/01 13:18:41;;;;;;;20.33;8.13;;;;;;;;;;5107370;28;20102;-86
2022/01/01 13:21:07;;;;;;;16.77;7.85;;;;;;;;;;5109213;28;20407;-88
2022/01/01 13:23:33;;;;;;;16.52;7.10;;;;;;;;;;5089531;28;20070;-85
2022/01/01 13:26:00;;;;;;;17.58;7.43;;;;;;;;;;5088777;28;20536;-86
2022/01/01 13:28:29;;;;;;;19.77;7.90;;;;;;;;;;5109282;28;20040;-86
2022/01/01 13:30:56;;;;;;;17.70;7.35;;;;;;;;;;5053045;28;20044;-85
2022/01/01 13:33:23;;;;;;;21.00;7.90;;;;;;;;;;5089507;28;20044;-86
2022/01/01 13:35:50;;;;;;;12.60;6.85;;;;;;;;;;5106179;28;20155;-84
2022/01/01 13:38:17;;;;;;;20.10;8.27;;;;;;;;;;5105217;28;20082;-85
2022/01/01 13:40:48;;;;;;;17.75;7.85;;;;;;;;;;5087605;28;20051;-86
2022/01/01 13:43:14;;;;;;;21.02;7.50;;;;;;;;;;5085989;28;20055;-85
2022/01/01 13:45:40;;;;;;;19.58;7.97;;;;;;;;;;5081653;28;20118;-86
2022/01/01 13:48:07;;;;;;;15.65;6.88;;;;;;;;;;5104274;28;20135;-84
2022/01/01 13:50:43;;;;;;;20.92;7.45;;;;;;;;;;5069451;28;20042;-84
2022/01/01 13:53:10;;;;;;;17.75;7.53;;;;;;;;;;5088530;28;20051;-85
2022/01/01 13:55:38;;;;;;;15.85;7.72;;;;;;;;;;5090353;28;20036;-83
2022/01/01 13:58:05;;;;;;;15.38;7.03;;;;;;;;;;5108518;28;20124;-85
2022/01/01 14:00:34;;;;;;;15.30;7.15;;;;;;;;;;5109199;28;20114;-84
2022/01/01 14:03:03;;;;;;;18.23;7.45;;;;;;;;;;5093155;28;20082;-85
2022/01/01 14:05:29;;;;;;;25.77;7.53;;;;;;;;;;5114431;28;20092;-84
2022/01/01 14:08:16;;;;;;;15.10;7.00;;;;;;;;;;5115031;28;20044;-84
2022/01/01 14:10:42;;;;;;;11.77;6.72;;;;;;;;;;5105781;28;20044;-85
2022/01/01 14:13:10;;;;;;;15.68;7.10;;;;;;;;;;5114108;28;20484;-88
2022/01/01 14:15:38;;;;;;;14.45;8.18;;;;;;;;;;5104625;28;20039;-85
2022/01/01 14:18:07;;;;;;;9.88;5.82;;;;;;;;;;5110324;28;20059;-84
2022/01/01 14:20:51;;;;;;;17.90;8.02;;;;;;;;;;5091630;28;20047;-84
2022/01/01 14:23:25;;;;;;;18.08;7.53;;;;;;;;;;5113785;27;20050;-85
2022/01/01 14:25:58;;;;;;;15.00;7.22;;;;;;;;;;5101917;28;20187;-86